createdAt,value
2016-12-15T00:00:40.986Z,0
2016-12-15T00:01:50.578Z,0
2016-12-15T00:02:59.777Z,0
2016-12-15T00:04:09.251Z,0
2016-12-15T00:05:18.731Z,0
2016-12-15T00:06:28.589Z,0
2016-12-15T00:07:38.459Z,0
2016-12-15T00:08:48.001Z,0
2016-12-15T00:09:57.546Z,0
2016-12-15T00:11:06.765Z,0
2016-12-15T00:12:16.556Z,0
2016-12-15T00:13:26.043Z,0
2016-12-15T00:14:35.826Z,0
2016-12-15T00:15:45.363Z,0
2016-12-15T00:16:55.237Z,0
2016-12-15T00:18:04.407Z,0
2016-12-15T00:19:14.202Z,0
2016-12-15T00:20:23.723Z,0
2016-12-15T00:21:33.237Z,0
2016-12-15T00:22:42.473Z,0
2016-12-15T00:23:52.270Z,0
2016-12-15T00:25:01.504Z,0
2016-12-15T00:26:11.290Z,0
2016-12-15T00:27:20.458Z,0
2016-12-15T00:28:29.931Z,0
2016-12-15T00:29:39.432Z,0
2016-12-15T00:30:48.657Z,0
2016-12-15T00:31:58.532Z,0
2016-12-15T00:33:08.361Z,0
2016-12-15T00:34:18.182Z,0
2016-12-15T00:35:27.644Z,0
2016-12-15T00:36:37.643Z,0
2016-12-15T00:37:47.139Z,0
2016-12-15T00:38:56.908Z,0
2016-12-15T00:40:06.695Z,0
2016-12-15T00:41:16.470Z,0
2016-12-15T00:42:26.268Z,0
2016-12-15T00:43:35.898Z,0
2016-12-15T00:44:45.368Z,0
2016-12-15T00:45:55.191Z,0
2016-12-15T00:47:04.999Z,0
2016-12-15T00:48:14.807Z,0
2016-12-15T00:49:24.025Z,0
2016-12-15T00:50:33.584Z,0
2016-12-15T00:51:42.756Z,0
2016-12-15T00:52:52.606Z,0
2016-12-15T00:54:02.436Z,0
2016-12-15T00:55:12.263Z,0
2016-12-15T00:56:21.417Z,0
2016-12-15T00:57:30.915Z,0
2016-12-15T00:58:40.685Z,0
2016-12-15T00:59:50.259Z,0
2016-12-15T01:01:00.111Z,0
2016-12-15T01:02:09.583Z,0
2016-12-15T01:03:18.616Z,0
2016-12-15T01:04:28.461Z,0
2016-12-15T01:05:38.290Z,0
2016-12-15T01:06:47.751Z,0
2016-12-15T01:07:57.293Z,0
2016-12-15T01:09:07.077Z,0
2016-12-15T01:10:16.872Z,0
2016-12-15T01:11:26.679Z,0
2016-12-15T01:12:36.170Z,0
2016-12-15T01:13:45.340Z,0
2016-12-15T01:14:54.825Z,0
2016-12-15T01:16:04.315Z,0
2016-12-15T01:17:13.844Z,0
2016-12-15T01:18:23.338Z,0
2016-12-15T01:19:32.833Z,0
2016-12-15T01:20:41.999Z,0
2016-12-15T01:21:51.533Z,0
2016-12-15T01:23:00.435Z,0
2016-12-15T01:24:09.917Z,0
2016-12-15T01:25:19.096Z,0
2016-12-15T01:26:28.920Z,0
2016-12-15T01:27:38.714Z,0
2016-12-15T01:28:47.586Z,0
2016-12-15T01:29:57.052Z,0
2016-12-15T01:31:06.206Z,0
2016-12-15T01:32:15.975Z,0
2016-12-15T01:33:25.766Z,0
2016-12-15T01:34:35.234Z,0
2016-12-15T01:35:44.705Z,0
2016-12-15T01:36:54.491Z,0
2016-12-15T01:38:04.296Z,0
2016-12-15T01:39:14.063Z,0
2016-12-15T01:40:23.847Z,0
2016-12-15T01:41:33.346Z,0
2016-12-15T01:42:43.122Z,0
2016-12-15T01:43:52.952Z,0
2016-12-15T01:45:02.745Z,0
2016-12-15T01:46:12.821Z,0
2016-12-15T01:47:22.348Z,0
2016-12-15T01:48:31.684Z,0
2016-12-15T01:49:40.547Z,0
2016-12-15T01:50:50.045Z,0
2016-12-15T01:51:59.532Z,0
2016-12-15T01:53:09.158Z,0
2016-12-15T01:54:18.938Z,0
2016-12-15T01:55:28.709Z,0
2016-12-15T01:56:38.510Z,0
2016-12-15T01:57:47.693Z,0
2016-12-15T01:58:57.168Z,0
2016-12-15T02:00:06.813Z,0
2016-12-15T02:01:16.276Z,0
2016-12-15T02:02:25.750Z,0
2016-12-15T02:03:34.936Z,0
2016-12-15T02:04:44.401Z,0
2016-12-15T02:05:54.189Z,0
2016-12-15T02:07:03.995Z,0
2016-12-15T02:08:13.622Z,0
2016-12-15T02:09:23.090Z,0
2016-12-15T02:10:32.739Z,0
2016-12-15T02:11:42.207Z,0
2016-12-15T02:12:51.699Z,0
2016-12-15T02:14:01.617Z,0
2016-12-15T02:15:11.107Z,0
2016-12-15T02:16:20.341Z,0
2016-12-15T02:17:30.139Z,0
2016-12-15T02:18:39.371Z,0
2016-12-15T02:19:49.252Z,0
2016-12-15T02:20:59.053Z,0
2016-12-15T02:22:08.576Z,0
2016-12-15T02:23:18.046Z,0
2016-12-15T02:24:27.517Z,0
2016-12-15T02:25:37.349Z,0
2016-12-15T02:26:47.124Z,0
2016-12-15T02:27:56.999Z,0
2016-12-15T02:29:06.508Z,0
2016-12-15T02:30:16.283Z,0
2016-12-15T02:31:25.447Z,0
2016-12-15T02:32:35.233Z,0
2016-12-15T02:33:44.706Z,0
2016-12-15T02:34:54.596Z,0
2016-12-15T02:36:04.396Z,0
2016-12-15T02:37:14.194Z,0
2016-12-15T02:38:23.970Z,0
2016-12-15T02:39:33.453Z,0
2016-12-15T02:40:42.672Z,0
2016-12-15T02:41:52.469Z,0
2016-12-15T02:43:01.664Z,0
2016-12-15T02:44:11.448Z,0
2016-12-15T02:45:21.234Z,0
2016-12-15T02:46:30.727Z,0
2016-12-15T02:47:39.890Z,0
2016-12-15T02:48:49.481Z,0
2016-12-15T02:49:58.988Z,0
2016-12-15T02:51:08.187Z,0
2016-12-15T02:52:17.973Z,0
2016-12-15T02:53:27.480Z,0
2016-12-15T02:54:36.979Z,0
2016-12-15T02:55:46.807Z,0
2016-12-15T02:56:56.280Z,0
2016-12-15T02:58:05.755Z,0
2016-12-15T02:59:14.918Z,0
2016-12-15T03:00:24.398Z,0
2016-12-15T03:01:33.587Z,0
2016-12-15T03:02:43.107Z,0
2016-12-15T03:03:52.892Z,0
2016-12-15T03:05:02.716Z,0
2016-12-15T03:06:11.925Z,0
2016-12-15T03:07:21.415Z,0
2016-12-15T03:08:30.941Z,0
2016-12-15T03:09:40.444Z,0
2016-12-15T03:10:50.225Z,0
2016-12-15T03:12:00.062Z,0
2016-12-15T03:13:09.239Z,0
2016-12-15T03:14:18.799Z,0
2016-12-15T03:15:28.273Z,0
2016-12-15T03:16:38.073Z,0
2016-12-15T03:17:47.250Z,0
2016-12-15T03:18:56.712Z,0
2016-12-15T03:20:05.991Z,0
2016-12-15T03:21:15.775Z,0
2016-12-15T03:22:25.237Z,0
2016-12-15T03:23:34.722Z,0
2016-12-15T03:24:44.550Z,0
2016-12-15T03:25:54.040Z,0
2016-12-15T03:27:03.509Z,0
2016-12-15T03:28:13.277Z,0
2016-12-15T03:29:22.468Z,0
2016-12-15T03:30:31.994Z,0
2016-12-15T03:31:41.457Z,0
2016-12-15T03:32:50.315Z,0
2016-12-15T03:33:59.875Z,0
2016-12-15T03:35:09.366Z,0
2016-12-15T03:36:19.153Z,0
2016-12-15T03:37:28.716Z,0
2016-12-15T03:38:38.567Z,0
2016-12-15T03:39:47.763Z,0
2016-12-15T03:40:57.229Z,0
2016-12-15T03:42:06.734Z,0
2016-12-15T03:43:16.534Z,0
2016-12-15T03:44:26.333Z,0
2016-12-15T03:45:36.173Z,0
2016-12-15T03:46:45.968Z,0
2016-12-15T03:47:55.189Z,0
2016-12-15T03:49:04.773Z,0
2016-12-15T03:50:14.328Z,0
2016-12-15T03:51:24.131Z,0
2016-12-15T03:52:33.622Z,0
2016-12-15T03:53:43.491Z,0
2016-12-15T03:54:53.007Z,0
2016-12-15T03:56:02.808Z,0
2016-12-15T03:57:12.604Z,0
2016-12-15T03:58:22.088Z,0
2016-12-15T03:59:31.972Z,0
2016-12-15T04:00:41.800Z,0
2016-12-15T04:01:51.309Z,0
2016-12-15T04:03:00.528Z,0
2016-12-15T04:04:10.680Z,0
2016-12-15T04:05:20.453Z,0
2016-12-15T04:06:30.006Z,0
2016-12-15T04:07:39.864Z,0
2016-12-15T04:08:49.712Z,0
2016-12-15T04:09:59.496Z,0
2016-12-15T04:11:09.269Z,0
2016-12-15T04:12:18.777Z,0
2016-12-15T04:13:28.073Z,0
2016-12-15T04:14:37.872Z,0
2016-12-15T04:15:47.578Z,0
2016-12-15T04:16:57.509Z,0
2016-12-15T04:18:07.292Z,0
2016-12-15T04:19:16.757Z,0
2016-12-15T04:20:26.232Z,0
2016-12-15T04:21:35.790Z,0
2016-12-15T04:22:45.589Z,0
2016-12-15T04:23:54.747Z,0
2016-12-15T04:25:04.528Z,0
2016-12-15T04:26:14.006Z,0
2016-12-15T04:27:23.612Z,0
2016-12-15T04:28:32.569Z,0
2016-12-15T04:29:42.059Z,0
2016-12-15T04:30:51.544Z,0
2016-12-15T04:32:01.049Z,0
2016-12-15T04:33:10.866Z,0
2016-12-15T04:34:20.396Z,0
2016-12-15T04:35:29.909Z,0
2016-12-15T04:36:39.687Z,0
2016-12-15T04:37:49.457Z,0
2016-12-15T04:38:59.063Z,0
2016-12-15T04:40:08.855Z,0
2016-12-15T04:41:18.651Z,0
2016-12-15T04:42:28.120Z,0
2016-12-15T04:43:37.665Z,0
2016-12-15T04:44:46.603Z,0
2016-12-15T04:45:56.386Z,0
2016-12-15T04:47:05.868Z,0
2016-12-15T04:48:15.770Z,0
2016-12-15T04:49:25.238Z,0
2016-12-15T04:50:34.737Z,0
2016-12-15T04:51:44.228Z,0
2016-12-15T04:52:53.411Z,0
2016-12-15T04:54:02.867Z,0
2016-12-15T04:55:12.472Z,0
2016-12-15T04:56:22.309Z,0
2016-12-15T04:57:32.110Z,0
2016-12-15T04:58:40.960Z,0
2016-12-15T04:59:50.501Z,0
2016-12-15T05:01:00.619Z,0
2016-12-15T05:02:10.465Z,0
2016-12-15T05:03:19.963Z,0
2016-12-15T05:04:28.827Z,0
2016-12-15T05:05:38.298Z,0
2016-12-15T05:06:48.063Z,0
2016-12-15T05:07:57.569Z,0
2016-12-15T05:09:07.055Z,0
2016-12-15T05:10:15.908Z,0
2016-12-15T05:11:25.677Z,0
2016-12-15T05:12:35.453Z,0
2016-12-15T05:13:44.620Z,0
2016-12-15T05:14:54.091Z,0
2016-12-15T05:16:04.112Z,0
2016-12-15T05:17:13.277Z,0
2016-12-15T05:18:23.168Z,0
2016-12-15T05:19:32.707Z,0
2016-12-15T05:20:41.903Z,0
2016-12-15T05:21:51.395Z,0
2016-12-15T05:23:00.608Z,0
2016-12-15T05:24:10.421Z,0
2016-12-15T05:25:19.598Z,0
2016-12-15T05:26:29.076Z,0
2016-12-15T05:27:38.594Z,0
2016-12-15T05:28:48.398Z,0
2016-12-15T05:29:57.869Z,0
2016-12-15T05:31:07.667Z,0
2016-12-15T05:32:17.149Z,0
2016-12-15T05:33:26.327Z,0
2016-12-15T05:34:36.197Z,0
2016-12-15T05:35:45.974Z,0
2016-12-15T05:36:55.139Z,0
2016-12-15T05:38:04.986Z,0
2016-12-15T05:39:14.167Z,0
2016-12-15T05:40:24.052Z,0
2016-12-15T05:41:33.832Z,0
2016-12-15T05:42:43.337Z,0
2016-12-15T05:43:52.810Z,0
2016-12-15T05:45:02.653Z,0
2016-12-15T05:46:11.850Z,0
2016-12-15T05:47:21.639Z,0
2016-12-15T05:48:31.502Z,0
2016-12-15T05:49:41.309Z,0
2016-12-15T05:50:50.773Z,0
2016-12-15T05:52:00.256Z,0
2016-12-15T05:53:10.051Z,0
2016-12-15T05:54:19.532Z,0
2016-12-15T05:55:29.006Z,0
2016-12-15T05:56:38.816Z,0
2016-12-15T05:57:48.024Z,0
2016-12-15T05:58:58.052Z,0
2016-12-15T06:00:07.580Z,0
2016-12-15T06:01:17.046Z,0
2016-12-15T06:02:26.528Z,0
2016-12-15T06:03:36.359Z,0
2016-12-15T06:04:46.156Z,0
2016-12-15T06:05:55.653Z,0
2016-12-15T06:07:05.562Z,0
2016-12-15T06:08:15.341Z,0
2016-12-15T06:09:25.132Z,0
2016-12-15T06:10:35.017Z,0
2016-12-15T06:11:44.190Z,0
2016-12-15T06:12:53.719Z,0
2016-12-15T06:14:03.257Z,0
2016-12-15T06:15:12.451Z,0
2016-12-15T06:16:22.262Z,0
2016-12-15T06:17:31.823Z,0
2016-12-15T06:18:41.288Z,0
2016-12-15T06:19:50.843Z,0
2016-12-15T06:21:00.651Z,0
2016-12-15T06:22:10.137Z,0
2016-12-15T06:23:19.942Z,0
2016-12-15T06:24:29.802Z,0
2016-12-15T06:25:39.607Z,0
2016-12-15T06:26:49.435Z,0
2016-12-15T06:27:58.605Z,0
2016-12-15T06:29:08.096Z,0
2016-12-15T06:30:17.869Z,0
2016-12-15T06:31:27.047Z,0
2016-12-15T06:32:36.823Z,0
2016-12-15T06:33:46.331Z,0
2016-12-15T06:34:56.113Z,0
2016-12-15T06:36:05.609Z,0
2016-12-15T06:37:15.462Z,0
2016-12-15T06:38:25.235Z,0
2016-12-15T06:39:34.391Z,0
2016-12-15T06:40:43.875Z,0
2016-12-15T06:41:53.339Z,0
2016-12-15T06:43:03.115Z,0
2016-12-15T06:44:12.911Z,0
2016-12-15T06:45:22.078Z,0
2016-12-15T06:46:31.852Z,0
2016-12-15T06:47:41.634Z,0
2016-12-15T06:48:51.413Z,0
2016-12-15T06:50:00.882Z,0
2016-12-15T06:51:10.349Z,0
2016-12-15T06:52:19.823Z,0
2016-12-15T06:53:29.606Z,0
2016-12-15T06:54:39.390Z,0
2016-12-15T06:55:48.858Z,0
2016-12-15T06:56:58.338Z,0
2016-12-15T06:58:08.136Z,0
2016-12-15T06:59:17.289Z,0
2016-12-15T07:00:26.516Z,0
2016-12-15T07:01:35.420Z,0
2016-12-15T07:02:44.578Z,0
2016-12-15T07:04:26.210Z,0
2016-12-15T07:05:35.695Z,0
2016-12-15T07:06:45.464Z,0
2016-12-15T07:07:54.984Z,0
2016-12-15T07:09:04.588Z,0
2016-12-15T07:10:14.103Z,0
2016-12-15T07:11:23.571Z,0
2016-12-15T07:12:33.369Z,0
2016-12-15T07:13:42.941Z,5
2016-12-15T07:14:52.818Z,5
2016-12-15T07:16:02.685Z,5
2016-12-15T07:17:12.525Z,5
2016-12-15T07:18:22.412Z,5
2016-12-15T07:19:32.274Z,5
2016-12-15T07:20:42.052Z,5
2016-12-15T07:21:51.889Z,5
2016-12-15T07:23:01.675Z,5
2016-12-15T07:24:10.886Z,10
2016-12-15T07:25:20.397Z,5
2016-12-15T07:26:30.183Z,10
2016-12-15T07:27:39.665Z,10
2016-12-15T07:28:48.824Z,10
2016-12-15T07:29:58.600Z,10
2016-12-15T07:31:08.128Z,10
2016-12-15T07:32:17.300Z,10
2016-12-15T07:33:26.796Z,10
2016-12-15T07:34:36.600Z,10
2016-12-15T07:35:46.160Z,10
2016-12-15T07:36:55.935Z,10
2016-12-15T07:38:05.761Z,10
2016-12-15T07:39:15.246Z,10
2016-12-15T07:40:25.052Z,15
2016-12-15T07:41:34.524Z,15
2016-12-15T07:42:43.988Z,15
2016-12-15T07:43:53.455Z,15
2016-12-15T07:45:02.967Z,15
2016-12-15T07:46:12.757Z,15
2016-12-15T07:47:22.256Z,15
2016-12-15T07:48:32.031Z,15
2016-12-15T07:49:41.885Z,15
2016-12-15T07:50:51.656Z,15
2016-12-15T07:52:01.163Z,15
2016-12-15T07:53:11.011Z,15
2016-12-15T07:54:21.113Z,15
2016-12-15T07:55:30.947Z,20
2016-12-15T07:56:40.760Z,20
2016-12-15T07:57:50.589Z,20
2016-12-15T07:59:00.052Z,20
2016-12-15T08:00:09.921Z,20
2016-12-15T08:01:19.727Z,20
2016-12-15T08:02:29.519Z,25
2016-12-15T08:03:38.724Z,25
2016-12-15T08:04:48.186Z,25
2016-12-15T08:05:57.683Z,25
2016-12-15T08:07:07.178Z,25
2016-12-15T08:08:16.701Z,25
2016-12-15T08:09:25.921Z,25
2016-12-15T08:10:35.415Z,25
2016-12-15T08:11:44.626Z,25
2016-12-15T08:12:53.886Z,30
2016-12-15T08:14:03.444Z,30
2016-12-15T08:15:12.932Z,30
2016-12-15T08:16:22.410Z,30
2016-12-15T08:17:31.892Z,30
2016-12-15T08:18:41.694Z,30
2016-12-15T08:19:51.482Z,30
2016-12-15T08:21:01.523Z,30
2016-12-15T08:22:11.314Z,30
2016-12-15T08:23:21.133Z,30
2016-12-15T08:24:30.921Z,30
2016-12-15T08:25:40.378Z,30
2016-12-15T08:26:49.624Z,35
2016-12-15T08:27:58.796Z,35
2016-12-15T08:29:08.641Z,40
2016-12-15T08:30:18.470Z,40
2016-12-15T08:31:27.626Z,40
2016-12-15T08:32:36.835Z,45
2016-12-15T08:33:46.635Z,45
2016-12-15T08:34:56.122Z,45
2016-12-15T08:36:05.904Z,45
2016-12-15T08:37:15.368Z,45
2016-12-15T08:38:24.858Z,45
2016-12-15T08:39:34.381Z,45
2016-12-15T08:40:44.226Z,45
2016-12-15T08:41:53.700Z,45
2016-12-15T08:43:03.562Z,45
2016-12-15T08:44:13.062Z,45
2016-12-15T08:45:22.876Z,45
2016-12-15T08:46:32.097Z,50
2016-12-15T08:47:41.575Z,50
2016-12-15T08:48:50.788Z,50
2016-12-15T08:50:00.622Z,50
2016-12-15T08:51:10.439Z,50
2016-12-15T08:52:20.240Z,50
2016-12-15T08:53:29.756Z,50
2016-12-15T08:54:39.682Z,50
2016-12-15T08:55:49.490Z,50
2016-12-15T08:56:58.954Z,50
2016-12-15T08:58:08.732Z,55
2016-12-15T08:59:18.513Z,55
2016-12-15T09:00:28.333Z,55
2016-12-15T09:01:38.142Z,55
2016-12-15T09:02:47.938Z,60
2016-12-15T09:03:57.479Z,65
2016-12-15T09:05:07.309Z,65
2016-12-15T09:06:16.800Z,65
2016-12-15T09:07:26.299Z,70
2016-12-15T09:08:35.766Z,70
2016-12-15T09:09:45.337Z,70
2016-12-15T09:10:55.127Z,70
2016-12-15T09:12:04.946Z,70
2016-12-15T09:13:14.105Z,70
2016-12-15T09:14:23.979Z,75
2016-12-15T09:15:33.479Z,75
2016-12-15T09:16:43.269Z,70
2016-12-15T09:17:53.054Z,75
2016-12-15T09:19:02.845Z,70
2016-12-15T09:20:12.628Z,70
2016-12-15T09:21:22.125Z,70
2016-12-15T09:22:31.978Z,70
2016-12-15T09:23:41.478Z,70
2016-12-15T09:24:50.957Z,70
2016-12-15T09:26:00.428Z,70
2016-12-15T09:27:10.253Z,70
2016-12-15T09:28:19.906Z,80
2016-12-15T09:29:29.409Z,80
2016-12-15T09:30:39.207Z,80
2016-12-15T09:31:49.111Z,85
2016-12-15T09:32:58.903Z,85
2016-12-15T09:34:08.759Z,90
2016-12-15T09:35:18.254Z,90
2016-12-15T09:36:27.110Z,85
2016-12-15T09:37:36.885Z,85
2016-12-15T09:38:46.675Z,80
2016-12-15T09:39:56.501Z,85
2016-12-15T09:41:06.329Z,85
2016-12-15T09:42:16.125Z,85
2016-12-15T09:43:25.962Z,80
2016-12-15T09:44:35.444Z,80
2016-12-15T09:45:44.651Z,80
2016-12-15T09:46:54.136Z,75
2016-12-15T09:48:03.919Z,75
2016-12-15T09:49:13.409Z,75
2016-12-15T09:50:22.887Z,75
2016-12-15T09:51:32.671Z,75
2016-12-15T09:52:42.479Z,75
2016-12-15T09:53:51.999Z,75
2016-12-15T09:55:01.801Z,75
2016-12-15T09:56:11.758Z,75
2016-12-15T09:57:21.541Z,70
2016-12-15T09:58:31.319Z,70
2016-12-15T09:59:40.876Z,70
2016-12-15T10:00:50.068Z,70
2016-12-15T10:01:59.249Z,75
2016-12-15T10:03:08.417Z,75
2016-12-15T10:04:18.223Z,75
2016-12-15T10:05:27.394Z,80
2016-12-15T10:06:36.881Z,85
2016-12-15T10:07:46.468Z,90
2016-12-15T10:08:55.958Z,90
2016-12-15T10:10:05.769Z,100
2016-12-15T10:11:15.258Z,110
2016-12-15T10:12:25.072Z,105
2016-12-15T10:13:34.862Z,110
2016-12-15T10:14:44.350Z,110
2016-12-15T10:15:54.153Z,115
2016-12-15T10:17:03.946Z,105
2016-12-15T10:18:13.476Z,105
2016-12-15T10:19:22.988Z,105
2016-12-15T10:20:32.769Z,105
2016-12-15T10:21:42.279Z,110
2016-12-15T10:22:52.106Z,110
2016-12-15T10:24:01.572Z,110
2016-12-15T10:25:11.034Z,115
2016-12-15T10:26:20.246Z,110
2016-12-15T10:27:29.799Z,110
2016-12-15T10:28:39.625Z,115
2016-12-15T10:29:49.450Z,115
2016-12-15T10:30:59.244Z,115
2016-12-15T10:32:08.728Z,120
2016-12-15T10:33:18.226Z,125
2016-12-15T10:34:28.030Z,120
2016-12-15T10:35:37.897Z,130
2016-12-15T10:36:47.704Z,130
2016-12-15T10:37:57.319Z,135
2016-12-15T10:39:06.816Z,140
2016-12-15T10:40:16.129Z,135
2016-12-15T10:41:25.931Z,145
2016-12-15T10:42:35.715Z,155
2016-12-15T10:43:45.234Z,150
2016-12-15T10:44:55.039Z,150
2016-12-15T10:46:04.296Z,150
2016-12-15T10:47:13.785Z,150
2016-12-15T10:48:23.287Z,150
2016-12-15T10:49:33.108Z,150
2016-12-15T10:50:42.288Z,150
2016-12-15T10:51:52.229Z,150
2016-12-15T10:53:02.014Z,155
2016-12-15T10:54:11.481Z,155
2016-12-15T10:55:21.286Z,165
2016-12-15T10:56:30.837Z,165
2016-12-15T10:57:40.333Z,165
2016-12-15T10:58:49.830Z,170
2016-12-15T10:59:59.057Z,170
2016-12-15T11:01:08.884Z,170
2016-12-15T11:02:18.351Z,170
2016-12-15T11:03:28.129Z,175
2016-12-15T11:04:37.596Z,165
2016-12-15T11:05:46.549Z,165
2016-12-15T11:06:56.068Z,160
2016-12-15T11:08:05.586Z,150
2016-12-15T11:09:15.555Z,140
2016-12-15T11:10:25.332Z,140
2016-12-15T11:11:34.859Z,140
2016-12-15T11:12:44.376Z,135
2016-12-15T11:13:54.161Z,130
2016-12-15T11:15:03.658Z,135
2016-12-15T11:16:13.451Z,140
2016-12-15T11:17:23.356Z,150
2016-12-15T11:18:33.129Z,145
2016-12-15T11:19:43.004Z,145
2016-12-15T11:20:52.485Z,155
2016-12-15T11:22:34.130Z,160
2016-12-15T11:23:44.012Z,165
2016-12-15T11:24:53.520Z,145
2016-12-15T11:26:03.333Z,150
2016-12-15T11:27:12.920Z,145
2016-12-15T11:28:22.382Z,145
2016-12-15T11:29:31.563Z,145
2016-12-15T11:30:41.378Z,145
2016-12-15T11:31:50.900Z,145
2016-12-15T11:33:00.798Z,150
2016-12-15T11:34:10.274Z,155
2016-12-15T11:35:20.130Z,155
2016-12-15T11:36:29.916Z,155
2016-12-15T11:37:39.443Z,150
2016-12-15T11:38:48.927Z,145
2016-12-15T11:39:58.448Z,155
2016-12-15T11:41:08.027Z,160
2016-12-15T11:42:17.815Z,180
2016-12-15T11:43:27.593Z,190
2016-12-15T11:44:37.096Z,160
2016-12-15T11:45:46.597Z,165
2016-12-15T11:46:56.398Z,165
2016-12-15T11:48:06.089Z,170
2016-12-15T11:49:15.253Z,170
2016-12-15T11:50:24.420Z,170
2016-12-15T11:51:34.380Z,170
2016-12-15T11:52:43.586Z,160
2016-12-15T11:53:53.371Z,155
2016-12-15T11:55:02.864Z,150
2016-12-15T11:56:12.644Z,145
2016-12-15T11:57:21.821Z,140
2016-12-15T11:58:31.639Z,140
2016-12-15T11:59:41.450Z,135
2016-12-15T12:00:51.287Z,140
2016-12-15T12:02:01.062Z,145
2016-12-15T12:03:10.847Z,140
2016-12-15T12:04:20.344Z,140
2016-12-15T12:05:29.844Z,135
2016-12-15T12:06:39.623Z,130
2016-12-15T12:07:49.437Z,135
2016-12-15T12:08:59.298Z,130
2016-12-15T12:10:09.137Z,135
2016-12-15T12:11:19.224Z,130
2016-12-15T12:12:29.021Z,125
2016-12-15T12:13:38.824Z,120
2016-12-15T12:14:48.633Z,120
2016-12-15T12:15:58.129Z,130
2016-12-15T12:17:07.722Z,125
2016-12-15T12:18:17.527Z,120
2016-12-15T12:19:26.401Z,125
2016-12-15T12:20:35.870Z,125
2016-12-15T12:21:45.680Z,120
2016-12-15T12:22:55.177Z,115
2016-12-15T12:24:04.690Z,110
2016-12-15T12:25:14.544Z,115
2016-12-15T12:26:24.335Z,110
2016-12-15T12:27:33.810Z,110
2016-12-15T12:28:43.584Z,110
2016-12-15T12:29:53.045Z,110
2016-12-15T12:31:02.909Z,105
2016-12-15T12:32:12.396Z,105
2016-12-15T12:33:21.569Z,105
2016-12-15T12:34:31.044Z,100
2016-12-15T12:35:40.825Z,100
2016-12-15T12:36:50.321Z,100
2016-12-15T12:37:59.848Z,100
2016-12-15T12:39:08.700Z,100
2016-12-15T12:40:17.908Z,100
2016-12-15T12:41:27.199Z,100
2016-12-15T12:42:36.772Z,105
2016-12-15T12:43:45.633Z,100
2016-12-15T12:44:55.453Z,100
2016-12-15T12:46:05.319Z,100
2016-12-15T12:47:15.105Z,100
2016-12-15T12:48:24.306Z,100
2016-12-15T12:49:34.117Z,95
2016-12-15T12:50:43.917Z,95
2016-12-15T12:51:53.708Z,95
2016-12-15T12:53:03.268Z,90
2016-12-15T12:54:13.156Z,90
2016-12-15T12:55:22.998Z,90
2016-12-15T12:56:32.504Z,85
2016-12-15T12:57:41.983Z,85
2016-12-15T12:58:51.781Z,85
2016-12-15T13:00:01.379Z,90
2016-12-15T13:01:11.411Z,95
2016-12-15T13:02:20.883Z,95
2016-12-15T13:03:30.665Z,90
2016-12-15T13:04:40.536Z,85
2016-12-15T13:05:50.516Z,85
2016-12-15T13:07:00.307Z,85
2016-12-15T13:08:09.801Z,85
2016-12-15T13:09:19.617Z,85
2016-12-15T13:10:28.809Z,80
2016-12-15T13:11:38.313Z,75
2016-12-15T13:12:47.868Z,75
2016-12-15T13:13:57.052Z,75
2016-12-15T13:15:06.916Z,75
2016-12-15T13:16:16.694Z,75
2016-12-15T13:17:25.867Z,75
2016-12-15T13:18:35.665Z,75
2016-12-15T13:19:44.601Z,75
2016-12-15T13:20:54.094Z,70
2016-12-15T13:22:03.707Z,70
2016-12-15T13:23:13.564Z,70
2016-12-15T13:24:23.387Z,70
2016-12-15T13:25:33.297Z,70
2016-12-15T13:26:42.469Z,75
2016-12-15T13:27:52.258Z,75
2016-12-15T13:29:01.734Z,70
2016-12-15T13:30:11.232Z,70
2016-12-15T13:31:20.147Z,70
2016-12-15T13:32:29.948Z,65
2016-12-15T13:33:39.734Z,65
2016-12-15T13:34:49.632Z,65
2016-12-15T13:35:59.450Z,65
2016-12-15T13:37:09.263Z,60
2016-12-15T13:38:19.047Z,60
2016-12-15T13:39:28.829Z,60
2016-12-15T13:40:38.625Z,55
2016-12-15T13:41:48.392Z,55
2016-12-15T13:42:57.597Z,55
2016-12-15T13:44:07.161Z,55
2016-12-15T13:45:17.008Z,55
2016-12-15T13:46:26.895Z,50
2016-12-15T13:47:36.737Z,50
2016-12-15T13:48:46.261Z,50
2016-12-15T13:49:55.787Z,50
2016-12-15T13:51:05.572Z,50
2016-12-15T13:52:15.049Z,50
2016-12-15T13:53:24.873Z,45
2016-12-15T13:54:34.707Z,45
2016-12-15T13:55:44.180Z,45
2016-12-15T13:56:53.664Z,45
2016-12-15T13:58:03.160Z,45
2016-12-15T13:59:12.629Z,45
2016-12-15T14:00:22.128Z,40
2016-12-15T14:01:31.306Z,40
2016-12-15T14:02:40.543Z,40
2016-12-15T14:03:50.354Z,40
2016-12-15T14:05:00.159Z,40
2016-12-15T14:06:09.963Z,35
2016-12-15T14:07:19.802Z,40
2016-12-15T14:08:29.611Z,40
2016-12-15T14:09:39.490Z,35
2016-12-15T14:10:49.273Z,40
2016-12-15T14:11:58.788Z,35
2016-12-15T14:13:08.591Z,35
2016-12-15T14:14:18.112Z,35
2016-12-15T14:15:27.624Z,30
2016-12-15T14:16:37.158Z,30
2016-12-15T14:17:46.622Z,30
2016-12-15T14:18:56.142Z,30
2016-12-15T14:20:05.609Z,25
2016-12-15T14:21:15.392Z,25
2016-12-15T14:22:25.221Z,25
2016-12-15T14:23:34.999Z,25
2016-12-15T14:24:44.168Z,25
2016-12-15T14:25:53.634Z,20
2016-12-15T14:27:02.833Z,20
2016-12-15T14:28:12.524Z,20
2016-12-15T14:29:21.739Z,20
2016-12-15T14:30:30.914Z,20
2016-12-15T14:31:40.551Z,20
2016-12-15T14:32:50.055Z,20
2016-12-15T14:33:59.549Z,15
2016-12-15T14:35:08.785Z,15
2016-12-15T14:36:18.619Z,15
2016-12-15T14:37:27.836Z,15
2016-12-15T14:38:37.660Z,15
2016-12-15T14:39:47.154Z,15
2016-12-15T14:40:57.259Z,15
2016-12-15T14:42:07.129Z,15
2016-12-15T14:43:16.911Z,15
2016-12-15T14:44:26.716Z,15
2016-12-15T14:45:36.584Z,10
2016-12-15T14:46:46.469Z,10
2016-12-15T14:47:56.339Z,10
2016-12-15T14:49:06.169Z,10
2016-12-15T14:50:15.957Z,10
2016-12-15T14:51:25.457Z,10
2016-12-15T14:52:35.317Z,10
2016-12-15T14:53:45.157Z,10
2016-12-15T14:54:54.951Z,5
2016-12-15T14:56:04.737Z,5
2016-12-15T14:57:14.039Z,5
2016-12-15T14:58:23.621Z,5
2016-12-15T14:59:33.580Z,5
2016-12-15T15:00:43.133Z,5
2016-12-15T15:01:52.928Z,5
2016-12-15T15:03:02.883Z,5
2016-12-15T15:04:12.744Z,5
2016-12-15T15:05:22.231Z,0
2016-12-15T15:06:32.021Z,0
2016-12-15T15:07:41.803Z,0
2016-12-15T15:08:51.628Z,0
2016-12-15T15:10:01.554Z,0
2016-12-15T15:11:11.362Z,0
2016-12-15T15:12:20.955Z,0
2016-12-15T15:13:30.790Z,0
2016-12-15T15:14:40.566Z,0
2016-12-15T15:15:50.374Z,0
2016-12-15T15:17:00.206Z,0
2016-12-15T15:18:10.078Z,0
2016-12-15T15:19:19.893Z,0
2016-12-15T15:20:29.405Z,0
2016-12-15T15:21:38.968Z,0
2016-12-15T15:22:48.789Z,0
2016-12-15T15:23:58.611Z,0
2016-12-15T15:25:08.449Z,0
2016-12-15T15:26:18.260Z,0
2016-12-15T15:27:27.755Z,0
2016-12-15T15:28:36.965Z,0
2016-12-15T15:29:46.450Z,0
2016-12-15T15:30:56.250Z,0
2016-12-15T15:32:05.886Z,0
2016-12-15T15:33:15.730Z,0
2016-12-15T15:34:25.580Z,0
2016-12-15T15:35:34.806Z,0
2016-12-15T15:36:44.601Z,0
2016-12-15T15:37:54.098Z,0
2016-12-15T15:39:04.125Z,0
2016-12-15T15:40:13.972Z,0
2016-12-15T15:41:23.770Z,0
2016-12-15T15:42:33.124Z,0
2016-12-15T15:43:42.950Z,0
2016-12-15T15:44:52.745Z,0
2016-12-15T15:46:02.311Z,0
2016-12-15T15:47:11.782Z,0
2016-12-15T15:48:21.350Z,0
2016-12-15T15:49:31.183Z,0
2016-12-15T15:50:40.697Z,0
2016-12-15T15:51:50.536Z,0
2016-12-15T15:53:00.096Z,0
2016-12-15T15:54:09.909Z,0
2016-12-15T15:55:19.514Z,0
2016-12-15T15:56:29.339Z,0
2016-12-15T15:57:39.139Z,0
2016-12-15T15:58:48.971Z,0
2016-12-15T15:59:58.768Z,0
2016-12-15T16:01:08.402Z,0
2016-12-15T16:02:17.919Z,0
2016-12-15T16:03:27.234Z,0
2016-12-15T16:04:36.729Z,0
2016-12-15T16:05:46.578Z,0
2016-12-15T16:06:56.419Z,0
2016-12-15T16:08:06.233Z,0
2016-12-15T16:09:16.026Z,0
2016-12-15T16:10:25.523Z,0
2016-12-15T16:11:34.995Z,0
2016-12-15T16:12:44.576Z,0
2016-12-15T16:13:54.560Z,0
2016-12-15T16:15:04.077Z,0
2016-12-15T16:16:13.283Z,0
2016-12-15T16:17:23.122Z,0
2016-12-15T16:18:32.986Z,0
2016-12-15T16:19:42.564Z,0
2016-12-15T16:20:52.399Z,0
2016-12-15T16:22:01.591Z,0
2016-12-15T16:23:11.116Z,0
2016-12-15T16:24:20.615Z,0
2016-12-15T16:25:30.082Z,0
2016-12-15T16:26:39.881Z,0
2016-12-15T16:27:49.394Z,0
2016-12-15T16:28:59.187Z,0
2016-12-15T16:30:08.938Z,0
2016-12-15T16:31:18.807Z,0
2016-12-15T16:32:28.507Z,0
2016-12-15T16:33:38.435Z,0
2016-12-15T16:34:48.273Z,0
2016-12-15T16:35:57.448Z,0
2016-12-15T16:37:06.924Z,0
2016-12-15T16:38:16.427Z,0
2016-12-15T16:39:25.914Z,0
2016-12-15T16:40:35.704Z,0
2016-12-15T16:41:45.184Z,0
2016-12-15T16:42:55.004Z,0
2016-12-15T16:44:04.492Z,0
2016-12-15T16:45:14.005Z,0
2016-12-15T16:46:23.803Z,0
2016-12-15T16:47:32.976Z,0